Time;durP1;ratioP1;P1;durP2;ratioP2;P2;SDS_P1;SDS_P2;PMS_P1;PMS_P2;Temp;Humidity;BMP_temperature;BMP_pressure;BME280_temperature;BME280_humidity;BME280_pressure;Samples;Min_cycle;Max_cycle;Signal;HPM_P1;HPM_P2
2020/12/18 00:01:00;;;;;;;28.77;15.10;;;;;;;3.43;82.91;97291.91;4901174;29;20057;-74
2020/12/18 00:03:26;;;;;;;26.80;16.05;;;;;;;3.41;83.09;97293.84;4900774;29;20041;-73
2020/12/18 00:05:52;;;;;;;24.33;13.95;;;;;;;3.37;83.35;97292.50;4900435;29;20044;-74
2020/12/18 00:08:19;;;;;;;24.27;14.40;;;;;;;3.38;83.32;97294.16;4900352;29;20470;-73
2020/12/18 00:10:45;;;;;;;27.25;15.70;;;;;;;3.37;83.44;97299.47;4900349;29;20037;-73
2020/12/18 00:13:11;;;;;;;25.45;15.85;;;;;;;3.38;83.46;97294.16;4900731;29;20040;-74
2020/12/18 00:15:37;;;;;;;27.50;16.55;;;;;;;3.39;83.83;97292.38;4900550;29;20041;-73
2020/12/18 00:18:04;;;;;;;24.85;15.43;;;;;;;3.40;84.00;97283.63;4899210;29;20041;-73
2020/12/18 00:20:30;;;;;;;26.25;16.75;;;;;;;3.40;83.87;97289.63;4900470;29;20045;-74
2020/12/18 00:22:56;;;;;;;24.75;15.27;;;;;;;3.40;83.85;97288.78;4900035;29;20045;-74
2020/12/18 00:25:22;;;;;;;24.33;15.57;;;;;;;3.39;83.49;97288.00;4883674;29;20040;-74
2020/12/18 00:27:48;;;;;;;22.33;14.77;;;;;;;3.38;83.64;97288.97;4900407;29;20397;-74
2020/12/18 00:30:15;;;;;;;24.90;14.75;;;;;;;3.39;83.27;97284.59;4900238;29;20458;-74
2020/12/18 00:32:42;;;;;;;22.25;14.82;;;;;;;3.37;83.56;97284.72;4900257;29;20492;-74
2020/12/18 00:35:11;;;;;;;21.13;14.57;;;;;;;3.37;83.35;97289.91;4899943;29;20466;-74
2020/12/18 00:37:37;;;;;;;23.83;15.10;;;;;;;3.35;83.64;97291.84;4900091;29;20036;-74
2020/12/18 00:40:05;;;;;;;22.42;14.65;;;;;;;3.35;83.48;97291.03;4900204;29;20049;-73
2020/12/18 00:42:31;;;;;;;23.50;14.48;;;;;;;3.33;83.46;97296.38;4899962;29;20045;-73
2020/12/18 00:44:58;;;;;;;19.45;13.13;;;;;;;3.31;83.48;97289.72;4900090;29;20477;-74
2020/12/18 00:47:24;;;;;;;20.52;13.40;;;;;;;3.28;83.36;97285.66;4898801;29;20036;-74
2020/12/18 00:49:50;;;;;;;20.98;14.50;;;;;;;3.28;83.25;97295.22;4899179;29;20076;-74
2020/12/18 00:52:17;;;;;;;20.38;12.60;;;;;;;3.22;83.07;97291.44;4883469;29;20410;-73
2020/12/18 00:54:43;;;;;;;19.25;12.50;;;;;;;3.16;82.86;97290.25;4899760;29;20064;-74
2020/12/18 00:57:09;;;;;;;19.63;12.55;;;;;;;3.14;82.88;97291.38;4898543;29;20044;-73
2020/12/18 00:59:35;;;;;;;19.58;12.57;;;;;;;3.09;82.83;97291.81;4882608;29;20052;-74
2020/12/18 01:02:05;;;;;;;17.15;11.85;;;;;;;3.08;83.17;97291.97;4886687;29;20425;-74
2020/12/18 01:04:31;;;;;;;16.38;11.75;;;;;;;3.06;83.04;97297.28;4899926;29;20045;-73
2020/12/18 01:06:57;;;;;;;20.60;12.52;;;;;;;3.03;82.90;97295.00;4899799;29;20044;-74
2020/12/18 01:09:24;;;;;;;19.15;12.63;;;;;;;2.99;82.73;97294.50;4882968;29;20044;-74
2020/12/18 01:11:52;;;;;;;16.60;10.85;;;;;;;2.94;82.77;97299.31;4899609;29;20047;-73
2020/12/18 01:14:18;;;;;;;16.27;10.80;;;;;;;2.93;82.89;97309.81;4899769;29;20390;-74
2020/12/18 01:16:55;;;;;;;18.95;11.95;;;;;;;2.89;82.79;97317.06;4899329;29;20044;-74
2020/12/18 01:19:22;;;;;;;18.77;11.80;;;;;;;2.86;82.55;97317.38;4899729;29;20041;-74
2020/12/18 01:21:49;;;;;;;14.75;10.63;;;;;;;2.81;82.70;97316.97;4899239;29;20057;-74
2020/12/18 01:24:19;;;;;;;15.77;11.63;;;;;;;2.78;82.72;97318.09;4882856;29;20040;-74
2020/12/18 01:26:46;;;;;;;15.30;10.88;;;;;;;2.75;82.89;97320.16;4898995;29;20492;-74
2020/12/18 01:29:13;;;;;;;15.20;10.93;;;;;;;2.72;82.94;97320.47;4908547;29;20049;-73
2020/12/18 01:31:40;;;;;;;16.05;10.13;;;;;;;2.71;82.67;97316.22;4907653;29;20043;-73
2020/12/18 01:34:06;;;;;;;15.70;11.02;;;;;;;2.69;82.84;97319.00;4901438;29;20481;-74
2020/12/18 01:36:32;;;;;;;14.52;11.02;;;;;;;2.68;82.97;97317.34;4899873;29;20041;-74
2020/12/18 01:38:59;;;;;;;17.13;10.43;;;;;;;2.69;82.93;97320.75;4882106;29;20036;-74
2020/12/18 01:41:26;;;;;;;13.38;10.10;;;;;;;2.68;83.02;97313.94;4899071;29;20044;-73
2020/12/18 01:43:52;;;;;;;18.05;12.10;;;;;;;2.69;83.16;97319.00;4899056;29;20489;-74
2020/12/18 01:46:20;;;;;;;16.23;10.93;;;;;;;2.70;83.17;97318.00;4898104;29;20051;-73
2020/12/18 01:48:47;;;;;;;13.02;9.93;;;;;;;2.70;83.41;97314.63;4889350;29;20044;-74
2020/12/18 01:51:15;;;;;;;13.68;9.63;;;;;;;2.73;83.70;97312.56;4898745;29;20040;-74
2020/12/18 01:53:43;;;;;;;12.32;9.25;;;;;;;2.73;83.63;97302.19;4898842;29;20524;-74
2020/12/18 01:56:11;;;;;;;11.23;8.98;;;;;;;2.78;83.81;97306.94;4897548;29;20067;-73
2020/12/18 01:58:39;;;;;;;11.38;9.18;;;;;;;2.78;83.71;97312.13;4898834;29;20484;-74
2020/12/18 02:01:07;;;;;;;10.98;8.38;;;;;;;2.78;83.93;97307.75;4898759;29;20036;-73
2020/12/18 02:03:34;;;;;;;12.10;8.55;;;;;;;2.80;83.79;97305.81;4898514;29;20044;-73
2020/12/18 02:06:14;;;;;;;11.13;8.63;;;;;;;2.81;84.16;97310.06;4898665;29;20037;-74
2020/12/18 02:08:42;;;;;;;11.68;8.25;;;;;;;2.82;83.69;97318.63;4898781;29;20504;-74
2020/12/18 02:11:20;;;;;;;9.95;8.38;;;;;;;2.81;83.71;97317.81;4898158;29;20056;-74
2020/12/18 02:13:56;;;;;;;12.50;7.97;;;;;;;2.81;83.73;97320.41;4898148;29;20060;-74
2020/12/18 02:16:22;;;;;;;13.07;9.15;;;;;;;2.81;83.38;97327.34;4897563;29;20461;-74
2020/12/18 02:18:48;;;;;;;9.80;8.07;;;;;;;2.82;83.67;97319.44;4898567;29;20043;-74
2020/12/18 02:21:15;;;;;;;11.65;8.95;;;;;;;2.82;83.67;97324.63;4896730;29;20044;-74
2020/12/18 02:23:47;;;;;;;11.43;9.48;;;;;;;2.85;84.04;97323.50;4899054;29;20041;-74
2020/12/18 02:26:15;;;;;;;15.38;10.40;;;;;;;2.86;83.97;97319.97;4897090;29;20052;-74
2020/12/18 02:28:43;;;;;;;14.55;11.32;;;;;;;2.88;84.02;97315.44;4898272;29;20469;-74
2020/12/18 02:31:10;;;;;;;14.07;10.68;;;;;;;2.88;83.85;97314.63;4898292;29;20032;-74
2020/12/18 02:33:39;;;;;;;13.57;9.82;;;;;;;2.87;84.08;97310.41;4898259;29;20057;-74
2020/12/18 02:36:05;;;;;;;13.68;9.73;;;;;;;2.87;84.19;97316.41;4898515;29;20093;-73
2020/12/18 02:38:33;;;;;;;14.50;9.90;;;;;;;2.85;83.99;97308.75;4897435;29;20052;-73
2020/12/18 02:41:00;;;;;;;15.15;10.82;;;;;;;2.87;84.23;97306.03;4898036;29;20032;-74
2020/12/18 02:43:26;;;;;;;14.65;9.85;;;;;;;2.88;84.17;97294.72;4898400;29;20047;-74
2020/12/18 02:45:52;;;;;;;13.50;10.07;;;;;;;2.89;84.35;97292.94;4898128;29;20056;-73
2020/12/18 02:48:19;;;;;;;15.48;10.68;;;;;;;2.90;84.66;97282.44;4898036;29;20048;-73
2020/12/18 02:50:49;;;;;;;18.50;12.70;;;;;;;2.94;84.91;97282.94;4898094;29;20037;-73
2020/12/18 02:53:21;;;;;;;20.55;13.32;;;;;;;2.97;85.25;97286.06;4898162;29;20070;-74
2020/12/18 02:55:48;;;;;;;21.98;14.57;;;;;;;3.01;85.48;97295.16;4897083;29;20047;-74
2020/12/18 02:58:14;;;;;;;20.23;14.23;;;;;;;3.06;85.49;97292.09;4898696;29;20057;-73
2020/12/18 03:00:41;;;;;;;22.52;14.57;;;;;;;3.10;85.66;97288.25;4897813;29;20063;-74
2020/12/18 03:03:08;;;;;;;22.58;15.35;;;;;;;3.14;85.51;97286.19;4897788;29;20470;-74
2020/12/18 03:05:34;;;;;;;20.30;14.50;;;;;;;3.18;85.72;97290.91;4871498;29;20474;-74
2020/12/18 03:08:01;;;;;;;21.42;14.77;;;;;;;3.22;85.81;97288.84;4896954;29;20113;-73
2020/12/18 03:10:27;;;;;;;23.88;15.73;;;;;;;3.23;85.70;97280.09;4897844;29;20052;-74
2020/12/18 03:12:53;;;;;;;25.48;16.45;;;;;;;3.26;85.71;97290.19;4897746;29;20063;-74
2020/12/18 03:15:20;;;;;;;25.95;16.70;;;;;;;3.27;85.67;97284.00;4897612;29;20063;-74
2020/12/18 03:17:46;;;;;;;22.50;15.45;;;;;;;3.25;85.50;97285.94;4880831;29;20041;-74
2020/12/18 03:20:12;;;;;;;28.65;17.58;;;;;;;3.24;85.50;97285.13;4897215;29;20474;-74
2020/12/18 03:22:40;;;;;;;23.90;16.42;;;;;;;3.21;85.39;97288.03;4898172;29;20052;-74
2020/12/18 03:25:06;;;;;;;23.65;15.70;;;;;;;3.20;85.30;97294.19;4898002;29;20049;-74
2020/12/18 03:27:32;;;;;;;21.40;15.77;;;;;;;3.19;85.37;97291.72;4895027;29;20043;-73
2020/12/18 03:29:59;;;;;;;22.73;15.15;;;;;;;3.19;85.15;97297.75;4896555;29;20051;-73
2020/12/18 03:32:25;;;;;;;23.98;15.05;;;;;;;3.19;85.32;97294.31;4899613;29;20033;-74
2020/12/18 03:34:51;;;;;;;18.63;13.52;;;;;;;3.19;85.55;97289.97;4901628;29;20041;-74
2020/12/18 03:37:18;;;;;;;20.48;13.85;;;;;;;3.19;85.29;97289.97;4901410;29;20044;-74
2020/12/18 03:39:44;;;;;;;20.08;13.73;;;;;;;3.18;85.57;97283.13;4884223;29;20041;-74
2020/12/18 03:42:11;;;;;;;18.92;14.00;;;;;;;3.18;85.55;97282.34;4900795;29;20048;-74
2020/12/18 03:44:37;;;;;;;19.70;14.30;;;;;;;3.19;85.57;97282.19;4884676;29;20528;-73
2020/12/18 03:47:03;;;;;;;19.48;13.95;;;;;;;3.20;85.74;97275.22;4900560;29;20478;-74
2020/12/18 03:49:29;;;;;;;19.30;13.45;;;;;;;3.20;85.90;97272.63;4900961;29;20049;-73
2020/12/18 03:51:55;;;;;;;17.88;12.32;;;;;;;3.21;85.75;97272.50;4900740;29;20052;-74
2020/12/18 03:54:23;;;;;;;16.58;11.70;;;;;;;3.22;86.11;97268.91;4900747;29;20059;-73
2020/12/18 03:56:49;;;;;;;18.52;12.27;;;;;;;3.23;85.91;97282.69;4900452;29;20417;-75
2020/12/18 03:59:15;;;;;;;18.88;12.48;;;;;;;3.25;86.08;97278.16;4900827;29;20052;-73
2020/12/18 04:01:41;;;;;;;16.08;11.65;;;;;;;3.25;86.25;97279.00;4883046;29;20473;-74
2020/12/18 04:04:07;;;;;;;17.52;12.75;;;;;;;3.27;86.06;97271.06;4900784;29;20136;-74
2020/12/18 04:06:42;;;;;;;;;;;;;;;3.28;87.13;97271.88;4902705;29;20048;-73
2020/12/18 04:09:08;;;;;;;16.60;11.32;;;;;;;3.29;86.27;97269.13;4902822;29;19986;-74
2020/12/18 04:11:34;;;;;;;16.27;11.73;;;;;;;3.28;86.50;97267.50;4868727;29;20045;-74
2020/12/18 04:14:00;;;;;;;15.95;11.77;;;;;;;3.30;86.42;97259.56;4900831;29;20049;-74
2020/12/18 04:16:27;;;;;;;20.58;13.30;;;;;;;3.31;86.53;97259.41;4900630;29;20040;-73
2020/12/18 04:18:53;;;;;;;18.17;13.13;;;;;;;3.33;86.55;97267.03;4884017;29;20044;-74
2020/12/18 04:21:19;;;;;;;18.60;13.25;;;;;;;3.31;86.52;97264.59;4900238;29;20477;-73
2020/12/18 04:23:46;;;;;;;19.83;13.07;;;;;;;3.33;86.21;97259.28;4900736;29;20072;-74
2020/12/18 04:26:12;;;;;;;17.65;12.85;;;;;;;3.32;86.45;97261.06;4900032;29;20478;-73
2020/12/18 04:28:38;;;;;;;17.70;12.48;;;;;;;3.33;86.55;97261.84;4884061;29;20511;-74
2020/12/18 04:31:04;;;;;;;17.45;12.57;;;;;;;3.34;86.55;97263.47;4899045;29;20957;-74
2020/12/18 04:33:30;;;;;;;18.23;12.73;;;;;;;3.35;86.73;97265.13;4899744;29;20052;-74
2020/12/18 04:35:57;;;;;;;16.45;12.18;;;;;;;3.36;86.58;97261.53;4883190;29;20041;-74
2020/12/18 04:38:23;;;;;;;18.27;11.80;;;;;;;3.38;86.81;97272.56;4899997;29;20053;-73
2020/12/18 04:40:50;;;;;;;17.33;11.63;;;;;;;3.40;86.56;97271.47;4899558;29;20469;-74
2020/12/18 04:43:16;;;;;;;17.23;11.38;;;;;;;3.42;86.80;97261.78;4900600;29;20490;-73
2020/12/18 04:45:42;;;;;;;19.08;12.35;;;;;;;3.43;86.96;97257.41;4898953;29;20048;-73
2020/12/18 04:48:12;;;;;;;18.30;12.77;;;;;;;3.44;86.77;97252.06;4897545;29;20056;-74
2020/12/18 04:50:39;;;;;;;18.33;12.57;;;;;;;3.44;86.71;97236.50;4898642;29;20041;-74
2020/12/18 04:53:06;;;;;;;17.92;12.32;;;;;;;3.45;86.83;97251.09;4899249;29;20428;-73
2020/12/18 04:55:34;;;;;;;17.15;12.63;;;;;;;3.45;86.96;97251.09;4854305;29;20059;-73
2020/12/18 04:58:03;;;;;;;20.35;13.40;;;;;;;3.45;86.99;97240.72;4900039;29;20044;-74
2020/12/18 05:00:29;;;;;;;18.17;12.27;;;;;;;3.45;86.83;97234.72;4899572;29;20470;-74
2020/12/18 05:02:57;;;;;;;17.02;11.75;;;;;;;3.47;86.76;97243.16;4899109;29;20049;-74
2020/12/18 05:05:24;;;;;;;18.02;12.45;;;;;;;3.44;87.08;97254.66;4899683;29;20486;-74
2020/12/18 05:07:50;;;;;;;18.77;12.93;;;;;;;3.45;86.99;97251.09;4899509;29;20524;-74
2020/12/18 05:10:16;;;;;;;19.10;12.45;;;;;;;3.47;87.10;97258.72;4869196;29;20049;-74
2020/12/18 05:12:42;;;;;;;18.63;12.43;;;;;;;3.48;87.07;97265.53;4898719;29;20500;-74
2020/12/18 05:15:08;;;;;;;20.75;13.82;;;;;;;3.49;86.95;97271.53;4898244;29;20044;-73
2020/12/18 05:17:34;;;;;;;23.17;13.95;;;;;;;3.48;87.08;97275.88;4899742;29;20516;-74
2020/12/18 05:20:01;;;;;;;19.80;13.73;;;;;;;3.48;87.00;97275.09;4899265;29;20033;-74
2020/12/18 05:22:27;;;;;;;23.67;15.30;;;;;;;3.45;86.96;97274.41;4899130;29;20067;-73
2020/12/18 05:24:53;;;;;;;22.00;14.32;;;;;;;3.44;87.14;97266.78;4882010;29;20044;-74
2020/12/18 05:27:23;;;;;;;23.95;16.02;;;;;;;3.41;86.92;97269.69;4899396;29;20477;-73
2020/12/18 05:29:50;;;;;;;24.10;15.90;;;;;;;3.33;86.69;97267.03;4888752;29;20052;-73
2020/12/18 05:32:17;;;;;;;19.83;13.65;;;;;;;3.26;86.52;97266.84;4867037;29;20052;-73
2020/12/18 05:34:44;;;;;;;18.13;12.98;;;;;;;3.24;86.89;97264.41;4899288;29;20052;-73
2020/12/18 05:37:12;;;;;;;22.05;13.60;;;;;;;3.23;86.97;97273.16;4889481;29;20047;-73
2020/12/18 05:39:40;;;;;;;28.98;17.85;;;;;;;3.23;86.89;97270.56;4899107;29;20044;-73
2020/12/18 05:42:07;;;;;;;19.40;13.32;;;;;;;3.21;86.94;97272.50;4898543;29;20051;-73
2020/12/18 05:44:33;;;;;;;20.40;13.65;;;;;;;3.21;87.14;97264.72;4891040;29;20053;-74
2020/12/18 05:47:07;;;;;;;20.25;13.23;;;;;;;3.23;87.14;97267.13;4898642;29;20040;-74
2020/12/18 05:49:35;;;;;;;19.80;12.80;;;;;;;3.24;87.28;97263.59;4899194;29;20041;-73
2020/12/18 05:52:03;;;;;;;17.23;12.13;;;;;;;3.28;87.23;97269.28;4897066;29;20033;-73
2020/12/18 05:54:49;;;;;;;19.63;13.52;;;;;;;3.29;87.46;97271.72;4898034;29;20048;-74
2020/12/18 05:57:16;;;;;;;16.65;12.07;;;;;;;3.31;87.45;97263.78;4898849;29;20040;-73
2020/12/18 05:59:44;;;;;;;17.48;12.85;;;;;;;3.34;87.52;97263.47;4880909;29;20037;-74
2020/12/18 06:02:15;;;;;;;20.75;13.30;;;;;;;3.36;87.51;97264.97;4894429;29;20469;-74
2020/12/18 06:04:42;;;;;;;18.00;13.57;;;;;;;3.37;87.69;97261.41;4898685;29;20040;-74
2020/12/18 06:07:09;;;;;;;18.65;12.88;;;;;;;3.42;87.62;97263.53;4878284;29;20049;-73
2020/12/18 06:09:36;;;;;;;20.20;14.10;;;;;;;3.42;87.38;97255.75;4882592;29;20119;-73
2020/12/18 06:12:09;;;;;;;15.73;12.57;;;;;;;3.43;87.47;97260.00;4896799;29;20045;-75
2020/12/18 06:14:36;;;;;;;18.40;13.18;;;;;;;3.42;87.38;97259.19;4891341;29;20036;-74
2020/12/18 06:17:07;;;;;;;21.08;13.32;;;;;;;3.43;87.36;97263.38;4898707;29;20056;-73
2020/12/18 06:19:40;;;;;;;17.58;12.38;;;;;;;3.44;87.39;97267.63;4898115;29;20052;-74
2020/12/18 06:22:13;;;;;;;18.55;13.45;;;;;;;3.47;87.41;97271.69;4898710;29;20494;-75
2020/12/18 06:24:42;;;;;;;20.17;13.73;;;;;;;3.47;87.55;97266.50;4881358;29;20067;-74
2020/12/18 06:27:13;;;;;;;19.85;12.70;;;;;;;3.45;87.60;97271.03;4897657;29;20047;-74
2020/12/18 06:29:39;;;;;;;16.95;11.80;;;;;;;3.45;87.50;97271.81;4898521;29;20053;-74
2020/12/18 06:32:26;;;;;;;18.55;11.60;;;;;;;3.47;87.90;97271.69;4896919;29;20032;-74
2020/12/18 06:34:54;;;;;;;14.38;11.20;;;;;;;3.47;87.48;97274.28;4897948;29;20048;-73
2020/12/18 06:37:34;;;;;;;17.65;10.45;;;;;;;3.49;87.59;97274.94;4898116;29;20063;-74
2020/12/18 06:40:00;;;;;;;13.30;9.77;;;;;;;3.47;87.39;97276.06;4889267;29;20051;-74
2020/12/18 06:42:28;;;;;;;16.30;10.40;;;;;;;3.48;87.33;97270.69;4887207;29;20049;-74
2020/12/18 06:44:56;;;;;;;12.50;9.27;;;;;;;3.49;87.24;97276.72;4910417;29;20045;-74
2020/12/18 06:47:26;;;;;;;13.98;10.15;;;;;;;3.49;87.38;97277.53;4903706;29;20045;-74
2020/12/18 06:49:55;;;;;;;13.05;9.70;;;;;;;3.48;87.28;97273.28;4897998;29;20048;-74
2020/12/18 06:52:53;;;;;;;12.77;9.52;;;;;;;3.48;87.30;97273.28;4898443;29;20041;-75
2020/12/18 06:55:25;;;;;;;25.05;9.13;;;;;;;3.48;87.10;97270.69;4898221;29;20040;-73
2020/12/18 06:58:07;;;;;;;18.13;9.98;;;;;;;3.48;87.02;97265.53;4897984;29;20041;-74
2020/12/18 07:00:38;;;;;;;12.05;9.05;;;;;;;3.46;87.07;97272.63;4895402;29;20067;-74
2020/12/18 07:03:05;;;;;;;12.30;8.80;;;;;;;3.43;86.87;97265.97;4877706;29;20048;-74
2020/12/18 07:05:41;;;;;;;11.00;8.48;;;;;;;3.39;86.73;97259.47;4898130;29;20052;-75
2020/12/18 07:08:10;;;;;;;10.38;8.20;;;;;;;3.39;86.66;97263.84;4889724;29;20047;-73
2020/12/18 07:10:39;;;;;;;11.52;8.35;;;;;;;3.36;86.83;97262.38;4901438;29;20060;-74
2020/12/18 07:13:07;;;;;;;12.10;9.25;;;;;;;3.36;86.56;97267.56;4901650;29;20037;-74
2020/12/18 07:16:04;;;;;;;11.25;8.48;;;;;;;3.33;86.21;97265.25;4901826;29;20409;-74
2020/12/18 07:18:34;;;;;;;14.25;9.82;;;;;;;3.31;86.48;97268.97;4893157;29;20434;-73
2020/12/18 07:21:03;;;;;;;14.57;9.68;;;;;;;3.25;86.41;97266.03;4884691;29;20044;-73
2020/12/18 07:23:31;;;;;;;11.45;9.07;;;;;;;3.23;86.45;97265.38;4884944;29;20036;-74
2020/12/18 07:25:58;;;;;;;11.80;9.10;;;;;;;3.19;86.15;97269.22;4900848;29;20045;-73
2020/12/18 07:28:26;;;;;;;14.35;9.43;;;;;;;3.18;86.31;97270.19;4893849;29;20036;-74
2020/12/18 07:30:55;;;;;;;14.98;10.15;;;;;;;3.15;86.32;97265.31;4900800;29;20409;-73
2020/12/18 07:33:22;;;;;;;14.35;9.65;;;;;;;3.14;86.24;97271.44;4884801;29;20454;-74
2020/12/18 07:35:54;;;;;;;13.70;9.77;;;;;;;3.12;85.90;97270.78;4901084;29;20040;-73
2020/12/18 07:38:32;;;;;;;12.85;9.15;;;;;;;3.09;85.61;97273.69;4885229;29;20029;-73
2020/12/18 07:41:00;;;;;;;15.38;8.45;;;;;;;3.07;85.99;97273.03;4899451;29;20501;-74
2020/12/18 07:43:29;;;;;;;10.77;8.50;;;;;;;3.05;85.99;97273.16;4900896;29;20044;-73
2020/12/18 07:45:57;;;;;;;11.18;8.18;;;;;;;3.05;85.77;97273.16;4901514;29;20492;-73
2020/12/18 07:48:29;;;;;;;10.68;8.82;;;;;;;3.07;85.69;97273.03;4884140;29;20392;-73
2020/12/18 07:50:56;;;;;;;11.43;9.18;;;;;;;3.06;85.70;97271.38;4883856;29;20036;-74
2020/12/18 07:53:23;;;;;;;12.02;8.93;;;;;;;3.05;85.58;97274.94;4896050;29;20056;-75
2020/12/18 07:56:04;;;;;;;14.00;9.50;;;;;;;3.05;85.24;97272.34;4899511;29;20048;-74
2020/12/18 07:58:32;;;;;;;15.20;9.48;;;;;;;3.03;85.68;97274.28;4901212;29;20056;-74
2020/12/18 08:01:06;;;;;;;14.63;8.85;;;;;;;3.03;85.38;97267.31;4900359;29;20469;-74
2020/12/18 08:03:33;;;;;;;12.27;8.95;;;;;;;3.03;85.49;97259.53;4900706;29;20036;-75
2020/12/18 08:06:03;;;;;;;12.50;8.95;;;;;;;3.04;85.38;97258.59;4900880;29;20032;-74
2020/12/18 08:08:33;;;;;;;11.75;8.95;;;;;;;3.06;85.58;97266.19;4901101;29;20482;-74
2020/12/18 08:11:01;;;;;;;12.65;9.75;;;;;;;3.07;85.50;97265.25;4883749;29;20048;-73
2020/12/18 08:13:29;;;;;;;12.85;9.05;;;;;;;3.08;85.37;97266.84;4883402;29;20064;-74
2020/12/18 08:16:08;;;;;;;18.38;10.50;;;;;;;3.10;84.98;97266.72;4899183;29;20390;-74
2020/12/18 08:18:35;;;;;;;14.25;9.25;;;;;;;3.09;85.20;97257.31;4897822;29;20409;-73
2020/12/18 08:21:02;;;;;;;15.15;9.57;;;;;;;3.14;85.36;97265.44;4899322;29;20486;-74
2020/12/18 08:23:29;;;;;;;14.52;9.20;;;;;;;3.35;85.55;97265.13;4900269;29;20486;-73
2020/12/18 08:25:57;;;;;;;17.35;10.63;;;;;;;3.66;85.55;97258.50;4885425;29;20492;-74
2020/12/18 08:28:25;;;;;;;13.80;9.68;;;;;;;3.98;85.34;97257.03;4883499;29;20041;-74
2020/12/18 08:30:54;;;;;;;12.20;9.02;;;;;;;4.26;84.69;97249.00;4899920;29;20055;-73
2020/12/18 08:33:21;;;;;;;14.43;10.00;;;;;;;4.50;84.49;97253.47;4900035;29;20489;-73
2020/12/18 08:35:52;;;;;;;13.32;9.63;;;;;;;4.76;84.04;97250.72;4884891;29;20041;-74
2020/12/18 08:38:18;;;;;;;14.48;9.88;;;;;;;5.02;83.70;97254.97;4890993;29;20361;-73
2020/12/18 08:40:44;;;;;;;18.65;9.95;;;;;;;5.23;83.36;97262.28;4882290;29;20486;-73
2020/12/18 08:43:10;;;;;;;16.35;10.25;;;;;;;5.43;83.13;97257.53;4892152;29;20048;-73
2020/12/18 08:45:44;;;;;;;15.15;10.18;;;;;;;5.63;82.39;97252.78;4883396;29;20049;-74
2020/12/18 08:48:10;;;;;;;19.02;11.23;;;;;;;5.83;82.62;97258.41;4883403;29;20421;-74
2020/12/18 08:50:37;;;;;;;12.75;10.40;;;;;;;6.01;82.45;97264.25;4899653;29;20061;-74
2020/12/18 08:53:12;;;;;;;15.40;11.52;;;;;;;6.21;81.42;97261.22;4899661;29;20039;-73
2020/12/18 08:55:39;;;;;;;14.00;10.27;;;;;;;6.39;81.66;97263.59;4877517;29;20045;-73
2020/12/18 08:58:10;;;;;;;14.40;10.95;;;;;;;6.54;81.47;97263.69;4900445;29;20465;-74
2020/12/18 09:00:37;;;;;;;12.50;10.27;;;;;;;6.67;81.06;97263.91;4887016;29;20068;-73
2020/12/18 09:03:04;;;;;;;13.82;10.40;;;;;;;6.81;80.99;97259.75;4899362;29;20045;-74
2020/12/18 09:05:42;;;;;;;13.57;10.23;;;;;;;6.93;79.87;97267.97;4899592;29;20040;-74
2020/12/18 09:08:22;;;;;;;13.90;10.25;;;;;;;7.03;79.58;97264.13;4897249;29;20052;-73
2020/12/18 09:10:56;;;;;;;15.38;10.55;;;;;;;7.14;79.53;97270.75;4882979;29;20409;-74
2020/12/18 09:13:25;;;;;;;14.27;10.35;;;;;;;7.25;80.12;97272.13;4867285;29;20041;-73
2020/12/18 09:15:59;;;;;;;16.02;11.02;;;;;;;7.36;78.85;97265.69;4884664;29;20059;-73
2020/12/18 09:18:27;;;;;;;14.18;10.75;;;;;;;7.37;79.38;97267.28;4900519;29;20063;-73
2020/12/18 09:20:54;;;;;;;13.48;10.27;;;;;;;7.34;79.18;97271.06;4915251;29;20041;-73
2020/12/18 09:23:30;;;;;;;15.20;10.68;;;;;;;7.39;78.12;97273.13;4909658;29;20048;-74
2020/12/18 09:25:57;;;;;;;16.15;11.15;;;;;;;7.48;79.36;97270.28;4900391;29;20041;-74
2020/12/18 09:28:23;;;;;;;15.18;11.15;;;;;;;7.60;78.89;97269.84;4882494;29;20044;-74
2020/12/18 09:30:52;;;;;;;16.60;10.77;;;;;;;7.65;78.61;97273.53;4897348;29;20059;-73
2020/12/18 09:33:30;;;;;;;13.35;10.68;;;;;;;7.81;76.96;97275.19;4899041;29;20052;-73
2020/12/18 09:36:06;;;;;;;13.25;9.65;;;;;;;7.90;77.27;97271.50;4899342;29;20040;-74
2020/12/18 09:38:35;;;;;;;12.75;10.18;;;;;;;7.95;77.62;97270.13;4899041;29;20052;-75
2020/12/18 09:41:05;;;;;;;14.93;9.18;;;;;;;8.01;77.59;97267.59;4898839;29;20036;-73
2020/12/18 09:43:31;;;;;;;14.93;9.82;;;;;;;8.13;77.64;97273.19;4899779;29;20043;-73
2020/12/18 09:45:58;;;;;;;12.25;9.32;;;;;;;8.17;77.40;97279.69;4898479;29;20401;-74
2020/12/18 09:48:26;;;;;;;14.82;10.32;;;;;;;8.25;77.06;97273.53;4899126;29;20048;-73
2020/12/18 09:50:55;;;;;;;11.85;9.68;;;;;;;8.33;76.86;97269.00;4898479;29;20065;-74
2020/12/18 09:53:26;;;;;;;13.05;9.88;;;;;;;8.40;76.07;97273.50;4898082;29;20512;-73
2020/12/18 09:55:53;;;;;;;14.73;9.70;;;;;;;8.49;76.41;97256.75;4898543;29;20044;-73
2020/12/18 09:58:22;;;;;;;11.43;9.25;;;;;;;8.64;76.53;97252.28;4898111;29;20504;-74
2020/12/18 10:00:49;;;;;;;16.50;11.10;;;;;;;8.78;75.97;97252.41;4898227;29;20044;-73
2020/12/18 10:03:15;;;;;;;17.00;11.05;;;;;;;8.89;75.51;97242.28;4877495;29;20035;-73
2020/12/18 10:05:44;;;;;;;13.43;10.48;;;;;;;9.01;74.54;97245.22;4898038;29;20053;-73
2020/12/18 10:08:11;;;;;;;13.88;10.43;;;;;;;9.07;74.33;97244.47;4866144;29;20470;-75
2020/12/18 10:10:37;;;;;;;16.50;11.38;;;;;;;9.08;74.19;97243.44;4898164;29;20044;-74
2020/12/18 10:13:04;;;;;;;16.38;11.02;;;;;;;9.16;74.17;97242.53;4898143;29;20049;-74
2020/12/18 10:15:30;;;;;;;14.95;11.35;;;;;;;9.25;73.59;97248.41;4898451;29;20033;-73
2020/12/18 10:17:57;;;;;;;15.15;10.45;;;;;;;9.38;73.76;97243.28;4897862;29;20422;-74
2020/12/18 10:20:23;;;;;;;12.55;10.07;;;;;;;9.49;73.17;97244.56;4898293;29;20382;-74
2020/12/18 10:22:49;;;;;;;13.65;9.68;;;;;;;9.57;72.68;97252.28;4898274;29;20040;-74
2020/12/18 10:25:16;;;;;;;15.85;10.73;;;;;;;9.63;72.29;97242.84;4884330;29;20036;-73
2020/12/18 10:27:43;;;;;;;15.13;10.10;;;;;;;9.64;71.64;97239.22;4898046;29;20052;-73
2020/12/18 10:30:10;;;;;;;13.05;10.10;;;;;;;9.64;71.63;97237.44;4897859;29;20477;-74
2020/12/18 10:32:36;;;;;;;12.98;9.50;;;;;;;9.67;71.33;97225.75;4898146;29;20393;-73
2020/12/18 10:35:05;;;;;;;12.98;10.32;;;;;;;9.67;70.88;97221.31;4895771;29;20045;-73
2020/12/18 10:37:32;;;;;;;12.63;9.98;;;;;;;9.75;71.10;97222.97;4896444;29;20048;-73
2020/12/18 10:39:58;;;;;;;11.73;9.27;;;;;;;9.87;70.67;97224.06;4891960;29;20048;-74
2020/12/18 10:42:24;;;;;;;12.25;9.77;;;;;;;10.01;70.68;97222.28;4882976;29;20036;-74
2020/12/18 10:44:51;;;;;;;14.02;9.68;;;;;;;10.04;70.10;97214.06;4898352;29;20048;-73
2020/12/18 10:47:17;;;;;;;13.63;9.90;;;;;;;10.07;69.73;97215.47;4897103;29;20516;-74
2020/12/18 10:49:44;;;;;;;16.30;10.35;;;;;;;10.05;69.42;97220.09;4897452;29;20045;-74
2020/12/18 10:52:10;;;;;;;13.90;9.65;;;;;;;10.04;69.25;97218.50;4860298;29;20040;-73
2020/12/18 10:54:36;;;;;;;15.98;10.77;;;;;;;10.13;69.04;97218.09;4905586;29;20051;-74
2020/12/18 10:57:03;;;;;;;16.42;10.25;;;;;;;10.22;68.66;97210.88;4896852;29;20401;-73
2020/12/18 10:59:33;;;;;;;16.42;10.10;;;;;;;10.26;68.34;97200.81;4897716;29;20497;-74
2020/12/18 11:02:02;;;;;;;15.13;9.90;;;;;;;10.34;68.25;97200.69;4897238;29;20060;-73
2020/12/18 11:04:29;;;;;;;13.73;10.20;;;;;;;10.35;67.70;97203.09;4912396;29;20051;-74
2020/12/18 11:06:55;;;;;;;15.73;9.82;;;;;;;10.21;67.39;97188.31;4898069;29;20059;-74
2020/12/18 11:09:21;;;;;;;15.15;10.02;;;;;;;10.13;67.44;97185.84;4897881;29;20401;-74
2020/12/18 11:11:53;;;;;;;15.23;10.05;;;;;;;10.15;66.66;97189.09;4894176;29;20067;-74
2020/12/18 11:14:20;;;;;;;13.50;9.35;;;;;;;10.18;67.14;97183.44;4897210;29;20044;-73
2020/12/18 11:16:47;;;;;;;17.63;9.63;;;;;;;10.21;66.97;97182.25;4911972;29;20051;-73
2020/12/18 11:19:14;;;;;;;13.50;10.00;;;;;;;10.14;66.59;97185.66;4897340;29;20052;-73
2020/12/18 11:21:44;;;;;;;15.10;9.93;;;;;;;10.10;66.64;97187.06;4897436;29;20041;-73
2020/12/18 11:24:11;;;;;;;15.18;10.07;;;;;;;10.06;66.33;97187.66;4897963;29;20053;-73
2020/12/18 11:26:37;;;;;;;13.60;9.50;;;;;;;10.09;66.57;97189.88;4897303;29;20044;-73
2020/12/18 11:29:04;;;;;;;13.98;9.05;;;;;;;10.14;66.25;97177.81;4897877;29;20040;-74
2020/12/18 11:31:31;;;;;;;13.98;9.02;;;;;;;10.07;66.06;97166.47;4897735;29;20052;-73